Schnellsuche:     vonnach     am:               Ankunft heute   Abflug heute   
Wetterdaten des Sylter Flughafens. Alle Angaben sind ohne Gewähr.



Datum: 2017-01-18 22:00 UTC
   
Windrichtung: 260°
Windgeschwindigkeit: 9 - 18 Kt.
QNH: 1036 hPa
Temperatur: 5 °C
Taupunkt: 4 °C
rel. Luftfeuchte: 91 %

METAR EDXW 181550Z 24012KT 9999 BKN028 04/03 Q1037 RMK ATIS OSC=

TAF ist für heute noch nicht verfügbar.
 
Wettercam am Vorfeld 1:




Wolkenhöhen in den letzten 48 Stunden:






 


Im Jettempo nach Sylt!



Rhein-Neckar-Air

Mannheim und NUERNBERG
Die Rhein-Neckar-Air fliegt vom 05. April bis zum 14. Oktober 2017 nach Mannheim und vom 05. April bis zum 14. Oktober 2017 nach NUERNBERG. Zur Seite der Rhein-Neckar-Air: www.rn-air.de

airberlin

Zürich, Stuttgart, München und Düsseldorf
Die airberlin fliegt vom 15. April bis zum 21. Oktober 2017 nach Zürich, vom 08. April bis zum 28. Oktober 2017 nach Stuttgart, vom 06. Mai bis zum 28. Oktober 2017 nach München und vom 18. Januar bis zum 24. März 2018 nach Düsseldorf. Zur Seite der airberlin: www.airberlin.com

Lufthansa

München und Frankfurt/Main
Die Lufthansa fliegt vom 08. April bis zum 24. März 2018 nach München und vom 01. April bis zum 21. Oktober 2017 nach Frankfurt/Main. Zur Seite der Lufthansa: www.lufthansa.de

Syltair

Hamburg
Die Syltair fliegt vom 13. April bis zum 04. Oktober 2017 nach Hamburg. Zur Seite der Syltair: www.syltair.de